createdAt,value
2023-05-17T00:01:15.858Z,12.5
2023-05-17T00:06:36.748Z,12.4
2023-05-17T00:11:44.344Z,12.3
2023-05-17T00:17:20.726Z,12.2
2023-05-17T00:22:42.401Z,12.1
2023-05-17T00:28:35.865Z,12
2023-05-17T00:34:12.860Z,11.9
2023-05-17T00:39:48.769Z,11.9
2023-05-17T00:45:42.430Z,11.8
2023-05-17T00:51:19.458Z,11.7
2023-05-17T00:56:40.240Z,11.5
2023-05-17T01:02:34.716Z,11.4
2023-05-17T01:08:27.599Z,11.3
2023-05-17T01:14:03.049Z,11.3
2023-05-17T01:19:41.950Z,11.2
2023-05-17T01:25:33.396Z,11.1
2023-05-17T01:31:24.893Z,11.1
2023-05-17T01:36:32.403Z,11
2023-05-17T01:42:24.854Z,10.9
2023-05-17T01:48:15.939Z,10.8
2023-05-17T01:54:09.141Z,10.8
2023-05-17T01:59:30.180Z,10.7
2023-05-17T02:05:07.282Z,10.6
2023-05-17T02:10:45.587Z,10.4
2023-05-17T02:15:51.162Z,10.3
2023-05-17T02:21:12.895Z,10.3
2023-05-17T02:26:51.091Z,10.3
2023-05-17T02:32:27.103Z,10.3
2023-05-17T02:38:03.897Z,10.1
2023-05-17T02:43:41.793Z,9.9
2023-05-17T02:49:18.179Z,9.8
2023-05-17T02:54:54.915Z,9.7
2023-05-17T03:00:33.704Z,9.6
2023-05-17T03:06:11.296Z,9.6
2023-05-17T03:11:46.985Z,9.5
2023-05-17T03:17:25.226Z,9.5
2023-05-17T03:23:18.284Z,9.5
2023-05-17T03:28:54.619Z,9.5
2023-05-17T03:34:18.317Z,9.6
2023-05-17T03:39:39.248Z,9.8
2023-05-17T03:44:59.164Z,9.8
2023-05-17T03:50:07.822Z,9.8
2023-05-17T03:55:29.863Z,9.9
2023-05-17T04:01:05.739Z,9.9
2023-05-17T04:06:46.626Z,10.1
2023-05-17T04:12:22.584Z,10.2
2023-05-17T04:17:58.685Z,10.4
2023-05-17T04:23:37.412Z,10.8
2023-05-17T04:29:12.766Z,11.4
2023-05-17T04:34:49.961Z,12
2023-05-17T04:40:28.059Z,12.4
2023-05-17T04:46:04.188Z,12.8
2023-05-17T04:51:41.058Z,13.4
2023-05-17T04:57:19.219Z,14.4
2023-05-17T05:02:55.707Z,15.6
2023-05-17T05:08:31.771Z,16.8
2023-05-17T05:14:09.785Z,17.9
2023-05-17T05:19:49.526Z,19
2023-05-17T05:25:10.176Z,20.4
2023-05-17T05:30:50.084Z,22.3
2023-05-17T05:36:42.939Z,25
2023-05-17T05:48:14.412Z,30.3
2023-05-17T05:54:21.989Z,32.3
2023-05-17T05:59:57.357Z,34.6
2023-05-17T06:05:31.780Z,36.3
2023-05-17T06:10:38.471Z,31.2
2023-05-17T06:16:28.899Z,29.7
2023-05-17T06:22:07.992Z,30.7
2023-05-17T06:27:29.516Z,33.4
2023-05-17T06:33:05.678Z,38.6
2023-05-17T06:38:57.464Z,33.6
2023-05-17T06:44:33.369Z,30.5
2023-05-17T06:50:11.268Z,33.4
2023-05-17T06:55:50.214Z,40.4
2023-05-17T07:01:11.223Z,37.5
2023-05-17T07:06:34.841Z,34.3
2023-05-17T07:12:12.498Z,35.4
2023-05-17T07:17:35.845Z,36.3
2023-05-17T07:22:57.389Z,37.1
2023-05-17T07:28:21.765Z,37.8
2023-05-17T07:33:42.360Z,38.1
2023-05-17T07:39:04.245Z,37.6
2023-05-17T07:44:27.476Z,34.9
2023-05-17T07:49:52.406Z,34.4
2023-05-17T07:55:12.493Z,35.4
2023-05-17T08:00:35.843Z,35.9
2023-05-17T08:06:12.181Z,36.9
2023-05-17T08:11:18.035Z,38.4
2023-05-17T08:17:08.502Z,39.4
2023-05-17T08:22:46.306Z,40.1
2023-05-17T08:28:07.561Z,39.9
2023-05-17T08:33:55.487Z,39.6
2023-05-17T08:39:01.648Z,39.7
2023-05-17T08:44:39.517Z,39.6
2023-05-17T08:50:05.314Z,38.9
2023-05-17T08:55:26.787Z,38.1
2023-05-17T09:01:00.035Z,39
2023-05-17T09:06:40.452Z,39.2
2023-05-17T09:12:03.695Z,38
2023-05-17T09:17:39.633Z,37.4
2023-05-17T09:23:17.974Z,37.3
2023-05-17T09:29:05.168Z,37.1
2023-05-17T09:34:43.606Z,36.8
2023-05-17T09:40:05.632Z,37.5
2023-05-17T09:45:42.255Z,39.1
2023-05-17T09:51:03.055Z,41.1
2023-05-17T09:56:40.381Z,40.9
2023-05-17T10:02:16.890Z,39.8
2023-05-17T10:08:12.737Z,37.9
2023-05-17T10:13:35.494Z,36
2023-05-17T10:18:57.930Z,34.1
2023-05-17T10:24:33.940Z,34.5
2023-05-17T10:29:39.320Z,34.8
2023-05-17T10:34:31.007Z,34.6
2023-05-17T10:40:11.840Z,34.4
2023-05-17T10:45:38.699Z,34
2023-05-17T10:51:28.132Z,33.8
2023-05-17T10:56:48.948Z,33.8
2023-05-17T11:02:24.762Z,33.7
2023-05-17T11:07:39.767Z,33.8
2023-05-17T11:12:59.426Z,34
2023-05-17T11:18:30.000Z,34.6
2023-05-17T11:23:56.909Z,35.1
2023-05-17T11:29:10.435Z,35.8
2023-05-17T11:35:02.449Z,36.6
2023-05-17T11:40:51.622Z,37.9
2023-05-17T11:46:48.880Z,33.3
2023-05-17T11:52:54.621Z,34.4
2023-05-17T11:58:27.572Z,34.4
2023-05-17T12:04:02.710Z,33.3
2023-05-17T12:09:39.973Z,33.1
2023-05-17T12:15:33.641Z,33.2
2023-05-17T12:21:11.369Z,33.4
2023-05-17T12:27:03.835Z,33.5
2023-05-17T12:32:56.537Z,34.4
2023-05-17T12:38:34.547Z,34.8
2023-05-17T12:44:40.216Z,34
2023-05-17T12:50:18.419Z,34.2
2023-05-17T12:55:53.915Z,33.9
2023-05-17T13:01:46.822Z,33.9
2023-05-17T13:07:24.621Z,34.3
2023-05-17T13:13:15.673Z,34.7
2023-05-17T13:19:09.419Z,33.9
2023-05-17T13:25:00.898Z,34.1
2023-05-17T13:30:34.242Z,33.5
2023-05-17T13:36:11.970Z,32.8
2023-05-17T13:41:48.066Z,32
2023-05-17T13:47:23.472Z,31.4
2023-05-17T13:52:30.677Z,30.8
2023-05-17T13:58:06.773Z,29.7
2023-05-17T14:03:28.761Z,28.8
2023-05-17T14:09:08.839Z,27.9
2023-05-17T14:14:44.497Z,27.1
2023-05-17T14:20:06.109Z,25.8
2023-05-17T14:25:42.855Z,24.1
2023-05-17T14:31:03.147Z,22.9
2023-05-17T14:36:24.335Z,22.2
2023-05-17T14:41:52.377Z,21.5
2023-05-17T14:47:13.338Z,20.8
2023-05-17T14:52:34.306Z,20.2
2023-05-17T14:57:41.552Z,19.7
2023-05-17T15:03:10.224Z,19.1
2023-05-17T15:08:31.796Z,18.5
2023-05-17T15:13:52.944Z,18.1
2023-05-17T15:19:15.483Z,17.8
2023-05-17T15:25:09.001Z,17.4
2023-05-17T15:30:47.285Z,17.1
2023-05-17T15:36:23.715Z,16.9
2023-05-17T15:42:14.812Z,16.6
2023-05-17T15:47:43.382Z,16.3
2023-05-17T15:53:20.058Z,16.1
2023-05-17T15:59:11.359Z,15.8
2023-05-17T16:04:48.801Z,15.6
2023-05-17T16:10:24.627Z,15.4
2023-05-17T16:16:00.037Z,15.3
2023-05-17T16:21:53.539Z,15.1
2023-05-17T16:27:44.016Z,14.9
2023-05-17T16:33:34.950Z,14.8
2023-05-17T16:39:27.359Z,14.7
2023-05-17T16:45:18.215Z,14.6
2023-05-17T16:51:09.861Z,14.4
2023-05-17T16:57:02.019Z,14.2
2023-05-17T17:02:53.962Z,13.9
2023-05-17T17:08:45.796Z,13.6
2023-05-17T17:14:55.189Z,13.3
2023-05-17T17:20:31.744Z,13.1
2023-05-17T17:26:26.542Z,12.9
2023-05-17T17:32:19.041Z,12.8
2023-05-17T17:37:54.855Z,12.7
2023-05-17T17:43:30.327Z,12.6
2023-05-17T17:49:22.869Z,12.4
2023-05-17T17:54:44.676Z,12.4
2023-05-17T18:00:21.834Z,12.3
2023-05-17T18:06:14.873Z,12.3
2023-05-17T18:12:05.449Z,12.1
2023-05-17T18:17:41.296Z,12.1
2023-05-17T18:23:18.964Z,12
2023-05-17T18:29:07.192Z,11.9
2023-05-17T18:34:31.060Z,11.9
2023-05-17T18:39:52.412Z,11.9
2023-05-17T18:45:30.889Z,11.8
2023-05-17T18:51:06.405Z,11.8
2023-05-17T18:56:43.276Z,11.9
2023-05-17T19:01:48.663Z,11.8
2023-05-17T19:07:09.523Z,11.8
2023-05-17T19:12:47.263Z,11.8
2023-05-17T19:18:24.436Z,11.9
2023-05-17T19:24:01.424Z,11.8
2023-05-17T19:29:54.418Z,11.8
2023-05-17T19:35:18.724Z,11.8
2023-05-17T19:40:39.130Z,11.8
2023-05-17T19:46:17.233Z,11.8
2023-05-17T19:51:39.399Z,11.7
2023-05-17T19:57:47.939Z,11.6
2023-05-17T20:03:25.675Z,11.6
2023-05-17T20:09:02.698Z,11.6
2023-05-17T20:14:54.490Z,11.6
2023-05-17T20:20:32.566Z,11.6
2023-05-17T20:25:54.496Z,11.6
2023-05-17T20:31:31.637Z,11.6
2023-05-17T20:37:24.625Z,11.6
2023-05-17T20:43:19.588Z,11.6
2023-05-17T20:49:10.904Z,11.6
2023-05-17T20:55:14.992Z,11.6
2023-05-17T21:00:51.233Z,11.6
2023-05-17T21:06:42.913Z,11.5
2023-05-17T21:12:19.350Z,11.5
2023-05-17T21:18:09.699Z,11.5
2023-05-17T21:23:17.716Z,11.4
2023-05-17T21:28:56.889Z,11.4
2023-05-17T21:34:49.160Z,11.5
2023-05-17T21:40:40.898Z,11.5
2023-05-17T21:46:33.389Z,11.5
2023-05-17T21:52:24.978Z,11.5
2023-05-17T21:58:34.920Z,11.5
2023-05-17T22:03:58.891Z,11.4
2023-05-17T22:09:34.760Z,11.4
2023-05-17T22:15:27.964Z,11.4
2023-05-17T22:21:16.935Z,11.4
2023-05-17T22:26:53.200Z,11.4
2023-05-17T22:32:44.221Z,11.4
2023-05-17T22:38:36.048Z,11.4
2023-05-17T22:43:56.613Z,11.4
2023-05-17T22:49:47.884Z,11.3
2023-05-17T22:55:39.141Z,11.3
2023-05-17T23:00:59.993Z,11.3
2023-05-17T23:06:21.026Z,11.3
2023-05-17T23:11:42.273Z,11.3
2023-05-17T23:17:20.437Z,11.3
2023-05-17T23:22:56.703Z,11.3
2023-05-17T23:28:33.434Z,11.3
2023-05-17T23:33:54.634Z,11.3
2023-05-17T23:39:31.067Z,11.3
2023-05-17T23:45:08.002Z,11.3
2023-05-17T23:51:00.499Z,11.3
2023-05-17T23:56:36.451Z,11.3
